sensor_id;sensor_type;location;lat;lon;timestamp;temperature;humidity
11925;DHT22;6022;48.768;18.608;2023-06-22T00:02:12;20.00;99.90
11925;DHT22;6022;48.768;18.608;2023-06-22T00:04:53;20.10;99.90
11925;DHT22;6022;48.768;18.608;2023-06-22T00:07:20;20.00;99.90
11925;DHT22;6022;48.768;18.608;2023-06-22T00:09:49;20.00;99.90
11925;DHT22;6022;48.768;18.608;2023-06-22T00:12:20;20.10;99.90
11925;DHT22;6022;48.768;18.608;2023-06-22T00:14:47;20.00;99.90
11925;DHT22;6022;48.768;18.608;2023-06-22T00:17:14;20.00;99.90
11925;DHT22;6022;48.768;18.608;2023-06-22T00:19:42;19.90;99.90
11925;DHT22;6022;48.768;18.608;2023-06-22T00:22:09;19.80;99.90
11925;DHT22;6022;48.768;18.608;2023-06-22T00:24:37;20.00;99.90
11925;DHT22;6022;48.768;18.608;2023-06-22T00:27:04;20.00;99.90
11925;DHT22;6022;48.768;18.608;2023-06-22T00:29:47;20.00;99.90
11925;DHT22;6022;48.768;18.608;2023-06-22T00:32:18;20.00;99.90
11925;DHT22;6022;48.768;18.608;2023-06-22T00:34:51;19.90;99.90
11925;DHT22;6022;48.768;18.608;2023-06-22T00:37:24;20.00;99.90
11925;DHT22;6022;48.768;18.608;2023-06-22T00:39:52;19.90;99.90
11925;DHT22;6022;48.768;18.608;2023-06-22T00:42:29;20.00;99.90
11925;DHT22;6022;48.768;18.608;2023-06-22T00:44:58;19.90;99.90
11925;DHT22;6022;48.768;18.608;2023-06-22T00:47:26;20.00;99.90
11925;DHT22;6022;48.768;18.608;2023-06-22T00:49:56;20.20;99.90
11925;DHT22;6022;48.768;18.608;2023-06-22T00:52:38;20.10;99.90
11925;DHT22;6022;48.768;18.608;2023-06-22T00:55:19;20.30;99.90
11925;DHT22;6022;48.768;18.608;2023-06-22T00:57:58;20.20;99.90
11925;DHT22;6022;48.768;18.608;2023-06-22T01:00:31;20.00;99.90
11925;DHT22;6022;48.768;18.608;2023-06-22T01:03:03;20.10;99.90
11925;DHT22;6022;48.768;18.608;2023-06-22T01:05:32;20.20;99.90
11925;DHT22;6022;48.768;18.608;2023-06-22T01:11:37;20.10;99.90
11925;DHT22;6022;48.768;18.608;2023-06-22T01:16:56;19.80;99.90
11925;DHT22;6022;48.768;18.608;2023-06-22T01:22:02;19.80;99.90
11925;DHT22;6022;48.768;18.608;2023-06-22T01:27:28;20.00;99.90
11925;DHT22;6022;48.768;18.608;2023-06-22T01:30:05;19.80;99.90
11925;DHT22;6022;48.768;18.608;2023-06-22T01:32:34;19.90;99.90
11925;DHT22;6022;48.768;18.608;2023-06-22T01:35:06;19.90;99.90
11925;DHT22;6022;48.768;18.608;2023-06-22T01:37:36;20.00;99.90
11925;DHT22;6022;48.768;18.608;2023-06-22T01:40:06;19.80;99.90
11925;DHT22;6022;48.768;18.608;2023-06-22T01:42:36;20.00;99.90
11925;DHT22;6022;48.768;18.608;2023-06-22T01:45:05;19.50;99.90
11925;DHT22;6022;48.768;18.608;2023-06-22T01:47:34;19.70;99.90
11925;DHT22;6022;48.768;18.608;2023-06-22T01:50:04;19.50;99.90
11925;DHT22;6022;48.768;18.608;2023-06-22T01:52:34;19.40;99.90
11925;DHT22;6022;48.768;18.608;2023-06-22T01:55:03;19.50;99.90
11925;DHT22;6022;48.768;18.608;2023-06-22T01:57:32;19.60;99.90
11925;DHT22;6022;48.768;18.608;2023-06-22T02:00:04;19.30;99.90
11925;DHT22;6022;48.768;18.608;2023-06-22T02:03:03;19.20;99.90
11925;DHT22;6022;48.768;18.608;2023-06-22T02:05:51;19.10;99.90
11925;DHT22;6022;48.768;18.608;2023-06-22T02:08:30;19.40;99.90
11925;DHT22;6022;48.768;18.608;2023-06-22T02:11:16;19.00;99.90
11925;DHT22;6022;48.768;18.608;2023-06-22T02:13:49;19.30;99.90
11925;DHT22;6022;48.768;18.608;2023-06-22T02:16:26;19.40;99.90
11925;DHT22;6022;48.768;18.608;2023-06-22T02:18:56;19.30;99.90
11925;DHT22;6022;48.768;18.608;2023-06-22T02:21:30;19.20;99.90
11925;DHT22;6022;48.768;18.608;2023-06-22T02:23:58;19.20;99.90
11925;DHT22;6022;48.768;18.608;2023-06-22T02:26:28;19.30;99.90
11925;DHT22;6022;48.768;18.608;2023-06-22T02:28:57;19.20;99.90
11925;DHT22;6022;48.768;18.608;2023-06-22T02:31:28;19.30;99.90
11925;DHT22;6022;48.768;18.608;2023-06-22T02:34:01;19.40;99.90
11925;DHT22;6022;48.768;18.608;2023-06-22T02:36:34;19.20;99.90
11925;DHT22;6022;48.768;18.608;2023-06-22T02:39:10;19.30;99.90
11925;DHT22;6022;48.768;18.608;2023-06-22T02:41:38;19.30;99.90
11925;DHT22;6022;48.768;18.608;2023-06-22T02:44:06;19.30;99.90
11925;DHT22;6022;48.768;18.608;2023-06-22T02:46:45;19.20;99.90
11925;DHT22;6022;48.768;18.608;2023-06-22T02:49:21;19.10;99.90
11925;DHT22;6022;48.768;18.608;2023-06-22T02:51:51;19.10;99.90
11925;DHT22;6022;48.768;18.608;2023-06-22T02:54:29;19.00;99.90
11925;DHT22;6022;48.768;18.608;2023-06-22T03:29:26;18.90;99.90
11925;DHT22;6022;48.768;18.608;2023-06-22T03:32:02;19.00;99.90
11925;DHT22;6022;48.768;18.608;2023-06-22T03:34:34;19.10;99.90
11925;DHT22;6022;48.768;18.608;2023-06-22T03:37:06;18.90;99.90
11925;DHT22;6022;48.768;18.608;2023-06-22T03:39:50;18.90;99.90
11925;DHT22;6022;48.768;18.608;2023-06-22T03:42:23;19.10;99.90
11925;DHT22;6022;48.768;18.608;2023-06-22T03:45:07;18.80;99.90
11925;DHT22;6022;48.768;18.608;2023-06-22T03:47:35;18.80;99.90
11925;DHT22;6022;48.768;18.608;2023-06-22T03:50:02;18.90;99.90
11925;DHT22;6022;48.768;18.608;2023-06-22T03:52:51;18.80;99.90
11925;DHT22;6022;48.768;18.608;2023-06-22T03:55:22;18.90;99.90
11925;DHT22;6022;48.768;18.608;2023-06-22T03:57:50;19.00;99.90
11925;DHT22;6022;48.768;18.608;2023-06-22T04:00:17;19.70;99.90
11925;DHT22;6022;48.768;18.608;2023-06-22T04:02:45;19.60;99.90
11925;DHT22;6022;48.768;18.608;2023-06-22T04:05:12;20.40;99.90
11925;DHT22;6022;48.768;18.608;2023-06-22T04:07:39;20.60;99.90
11925;DHT22;6022;48.768;18.608;2023-06-22T04:10:07;20.70;99.90
11925;DHT22;6022;48.768;18.608;2023-06-22T04:12:38;20.70;99.90
11925;DHT22;6022;48.768;18.608;2023-06-22T04:15:06;20.40;99.90
11925;DHT22;6022;48.768;18.608;2023-06-22T04:17:37;20.40;99.90
11925;DHT22;6022;48.768;18.608;2023-06-22T04:20:08;20.40;99.90
11925;DHT22;6022;48.768;18.608;2023-06-22T04:22:36;20.30;99.90
11925;DHT22;6022;48.768;18.608;2023-06-22T04:25:06;20.30;99.90
11925;DHT22;6022;48.768;18.608;2023-06-22T04:27:35;20.20;99.90
11925;DHT22;6022;48.768;18.608;2023-06-22T04:30:13;20.30;99.90
11925;DHT22;6022;48.768;18.608;2023-06-22T04:32:42;20.40;99.90
11925;DHT22;6022;48.768;18.608;2023-06-22T04:35:11;20.30;99.90
11925;DHT22;6022;48.768;18.608;2023-06-22T04:37:39;21.20;99.90
11925;DHT22;6022;48.768;18.608;2023-06-22T04:40:07;22.00;99.90
11925;DHT22;6022;48.768;18.608;2023-06-22T04:42:45;22.30;99.90
11925;DHT22;6022;48.768;18.608;2023-06-22T04:46:11;23.40;99.90
11925;DHT22;6022;48.768;18.608;2023-06-22T04:48:39;23.60;99.90
11925;DHT22;6022;48.768;18.608;2023-06-22T04:51:07;23.40;99.90
11925;DHT22;6022;48.768;18.608;2023-06-22T04:53:35;24.20;99.90
11925;DHT22;6022;48.768;18.608;2023-06-22T04:56:05;25.50;99.90
11925;DHT22;6022;48.768;18.608;2023-06-22T04:58:33;26.20;99.90
11925;DHT22;6022;48.768;18.608;2023-06-22T05:01:03;26.80;99.90
11925;DHT22;6022;48.768;18.608;2023-06-22T05:03:31;26.20;99.90
11925;DHT22;6022;48.768;18.608;2023-06-22T05:05:59;26.20;99.90
11925;DHT22;6022;48.768;18.608;2023-06-22T05:08:36;25.70;99.90
11925;DHT22;6022;48.768;18.608;2023-06-22T05:11:10;25.70;99.90
11925;DHT22;6022;48.768;18.608;2023-06-22T05:13:38;27.10;99.90
11925;DHT22;6022;48.768;18.608;2023-06-22T05:16:06;26.70;99.90
11925;DHT22;6022;48.768;18.608;2023-06-22T05:18:34;26.80;99.90
11925;DHT22;6022;48.768;18.608;2023-06-22T05:21:03;27.50;99.90
11925;DHT22;6022;48.768;18.608;2023-06-22T05:23:31;27.40;99.90
11925;DHT22;6022;48.768;18.608;2023-06-22T05:26:02;28.10;99.90
11925;DHT22;6022;48.768;18.608;2023-06-22T05:28:29;29.00;99.90
11925;DHT22;6022;48.768;18.608;2023-06-22T05:30:59;28.70;99.90
11925;DHT22;6022;48.768;18.608;2023-06-22T05:33:27;29.30;99.90
11925;DHT22;6022;48.768;18.608;2023-06-22T05:35:54;29.60;99.90
11925;DHT22;6022;48.768;18.608;2023-06-22T05:38:21;28.90;99.90
11925;DHT22;6022;48.768;18.608;2023-06-22T05:40:51;28.80;99.90
11925;DHT22;6022;48.768;18.608;2023-06-22T05:43:19;30.20;99.90
11925;DHT22;6022;48.768;18.608;2023-06-22T05:45:46;30.50;99.90
11925;DHT22;6022;48.768;18.608;2023-06-22T05:48:13;30.10;99.90
11925;DHT22;6022;48.768;18.608;2023-06-22T05:50:41;30.30;99.90
11925;DHT22;6022;48.768;18.608;2023-06-22T05:53:09;30.60;99.90
11925;DHT22;6022;48.768;18.608;2023-06-22T05:55:36;30.80;99.90
11925;DHT22;6022;48.768;18.608;2023-06-22T05:58:04;31.00;99.90
11925;DHT22;6022;48.768;18.608;2023-06-22T06:00:31;30.90;99.90
11925;DHT22;6022;48.768;18.608;2023-06-22T06:02:59;31.30;99.90
11925;DHT22;6022;48.768;18.608;2023-06-22T06:05:31;31.10;99.90
11925;DHT22;6022;48.768;18.608;2023-06-22T06:08:00;31.20;99.90
11925;DHT22;6022;48.768;18.608;2023-06-22T06:10:29;32.50;99.90
11925;DHT22;6022;48.768;18.608;2023-06-22T06:13:00;32.30;99.90
11925;DHT22;6022;48.768;18.608;2023-06-22T06:15:32;32.80;99.90
11925;DHT22;6022;48.768;18.608;2023-06-22T06:17:59;32.80;99.90
11925;DHT22;6022;48.768;18.608;2023-06-22T06:20:27;33.00;99.90
11925;DHT22;6022;48.768;18.608;2023-06-22T06:22:55;33.20;99.90
11925;DHT22;6022;48.768;18.608;2023-06-22T06:25:23;33.20;99.90
11925;DHT22;6022;48.768;18.608;2023-06-22T06:27:51;32.60;99.90
11925;DHT22;6022;48.768;18.608;2023-06-22T06:30:21;32.10;99.90
11925;DHT22;6022;48.768;18.608;2023-06-22T06:32:50;32.50;99.90
11925;DHT22;6022;48.768;18.608;2023-06-22T06:35:18;33.20;99.90
11925;DHT22;6022;48.768;18.608;2023-06-22T06:37:47;33.10;99.60
11925;DHT22;6022;48.768;18.608;2023-06-22T06:40:16;33.30;99.60
11925;DHT22;6022;48.768;18.608;2023-06-22T06:42:48;32.70;99.90
11925;DHT22;6022;48.768;18.608;2023-06-22T06:45:20;32.60;99.90
11925;DHT22;6022;48.768;18.608;2023-06-22T06:47:50;33.10;99.80
11925;DHT22;6022;48.768;18.608;2023-06-22T06:50:19;33.20;99.30
11925;DHT22;6022;48.768;18.608;2023-06-22T06:52:47;33.10;99.50
11925;DHT22;6022;48.768;18.608;2023-06-22T06:55:14;34.10;99.90
11925;DHT22;6022;48.768;18.608;2023-06-22T06:57:42;33.70;98.80
11925;DHT22;6022;48.768;18.608;2023-06-22T07:00:11;33.90;98.30
11925;DHT22;6022;48.768;18.608;2023-06-22T07:02:44;34.00;98.60
11925;DHT22;6022;48.768;18.608;2023-06-22T07:05:14;34.20;97.10
11925;DHT22;6022;48.768;18.608;2023-06-22T07:07:41;34.30;97.30
11925;DHT22;6022;48.768;18.608;2023-06-22T07:10:10;33.90;96.80
11925;DHT22;6022;48.768;18.608;2023-06-22T07:12:37;33.80;98.40
11925;DHT22;6022;48.768;18.608;2023-06-22T07:15:06;33.70;97.10
11925;DHT22;6022;48.768;18.608;2023-06-22T07:17:36;33.70;97.60
11925;DHT22;6022;48.768;18.608;2023-06-22T07:20:10;33.50;96.30
11925;DHT22;6022;48.768;18.608;2023-06-22T07:22:44;32.60;98.70
11925;DHT22;6022;48.768;18.608;2023-06-22T07:25:14;32.90;98.60
11925;DHT22;6022;48.768;18.608;2023-06-22T07:28:08;33.00;98.30
11925;DHT22;6022;48.768;18.608;2023-06-22T07:30:34;33.70;98.00
11925;DHT22;6022;48.768;18.608;2023-06-22T07:33:04;34.10;96.00
11925;DHT22;6022;48.768;18.608;2023-06-22T07:35:35;34.00;98.80
11925;DHT22;6022;48.768;18.608;2023-06-22T07:38:03;33.20;99.00
11925;DHT22;6022;48.768;18.608;2023-06-22T07:40:32;33.10;99.40
11925;DHT22;6022;48.768;18.608;2023-06-22T07:43:01;34.40;96.50
11925;DHT22;6022;48.768;18.608;2023-06-22T07:45:31;34.30;97.00
11925;DHT22;6022;48.768;18.608;2023-06-22T07:48:02;34.60;95.10
11925;DHT22;6022;48.768;18.608;2023-06-22T07:50:32;35.30;92.50
11925;DHT22;6022;48.768;18.608;2023-06-22T07:53:01;35.30;93.10
11925;DHT22;6022;48.768;18.608;2023-06-22T07:55:28;35.60;93.90
11925;DHT22;6022;48.768;18.608;2023-06-22T07:57:56;35.60;91.20
11925;DHT22;6022;48.768;18.608;2023-06-22T08:00:28;35.00;91.40
11925;DHT22;6022;48.768;18.608;2023-06-22T08:02:56;35.00;92.00
11925;DHT22;6022;48.768;18.608;2023-06-22T08:05:23;34.80;91.90
11925;DHT22;6022;48.768;18.608;2023-06-22T08:07:50;34.70;92.40
11925;DHT22;6022;48.768;18.608;2023-06-22T08:10:19;35.60;90.10
11925;DHT22;6022;48.768;18.608;2023-06-22T08:12:47;35.70;90.20
11925;DHT22;6022;48.768;18.608;2023-06-22T08:15:15;36.10;91.60
11925;DHT22;6022;48.768;18.608;2023-06-22T08:17:44;36.40;90.80
11925;DHT22;6022;48.768;18.608;2023-06-22T08:20:12;36.40;91.20
11925;DHT22;6022;48.768;18.608;2023-06-22T08:22:41;34.80;91.50
11925;DHT22;6022;48.768;18.608;2023-06-22T08:25:10;35.40;91.20
11925;DHT22;6022;48.768;18.608;2023-06-22T08:27:37;35.80;90.10
11925;DHT22;6022;48.768;18.608;2023-06-22T08:30:06;35.50;90.20
11925;DHT22;6022;48.768;18.608;2023-06-22T08:32:37;34.30;92.10
11925;DHT22;6022;48.768;18.608;2023-06-22T08:35:05;33.50;93.20
11925;DHT22;6022;48.768;18.608;2023-06-22T08:37:35;33.40;90.90
11925;DHT22;6022;48.768;18.608;2023-06-22T08:40:06;33.90;91.70
11925;DHT22;6022;48.768;18.608;2023-06-22T08:42:40;35.00;91.00
11925;DHT22;6022;48.768;18.608;2023-06-22T08:45:09;35.80;89.30
11925;DHT22;6022;48.768;18.608;2023-06-22T08:47:40;36.40;87.30
11925;DHT22;6022;48.768;18.608;2023-06-22T08:50:10;36.50;84.40
11925;DHT22;6022;48.768;18.608;2023-06-22T08:52:39;36.60;85.00
11925;DHT22;6022;48.768;18.608;2023-06-22T08:55:10;36.50;84.90
11925;DHT22;6022;48.768;18.608;2023-06-22T08:57:38;36.90;84.60
11925;DHT22;6022;48.768;18.608;2023-06-22T09:00:08;36.90;84.80
11925;DHT22;6022;48.768;18.608;2023-06-22T09:02:44;37.00;78.10
11925;DHT22;6022;48.768;18.608;2023-06-22T09:05:15;36.10;78.00
11925;DHT22;6022;48.768;18.608;2023-06-22T09:07:53;35.80;79.50
11925;DHT22;6022;48.768;18.608;2023-06-22T09:10:23;35.90;80.50
11925;DHT22;6022;48.768;18.608;2023-06-22T09:12:50;36.50;78.20
11925;DHT22;6022;48.768;18.608;2023-06-22T09:15:21;36.70;78.70
11925;DHT22;6022;48.768;18.608;2023-06-22T09:17:48;37.40;79.20
11925;DHT22;6022;48.768;18.608;2023-06-22T09:20:15;36.70;75.70
11925;DHT22;6022;48.768;18.608;2023-06-22T09:22:43;36.30;78.00
11925;DHT22;6022;48.768;18.608;2023-06-22T09:25:10;36.80;78.10
11925;DHT22;6022;48.768;18.608;2023-06-22T09:27:38;36.10;79.10
11925;DHT22;6022;48.768;18.608;2023-06-22T09:30:10;36.30;81.10
11925;DHT22;6022;48.768;18.608;2023-06-22T09:32:41;36.90;83.60
11925;DHT22;6022;48.768;18.608;2023-06-22T09:35:14;37.50;82.40
11925;DHT22;6022;48.768;18.608;2023-06-22T09:37:46;37.70;83.10
11925;DHT22;6022;48.768;18.608;2023-06-22T09:40:24;37.70;81.40
11925;DHT22;6022;48.768;18.608;2023-06-22T09:43:06;37.30;80.50
11925;DHT22;6022;48.768;18.608;2023-06-22T09:45:36;37.10;80.20
11925;DHT22;6022;48.768;18.608;2023-06-22T09:48:10;36.90;81.70
11925;DHT22;6022;48.768;18.608;2023-06-22T09:50:40;37.00;84.30
11925;DHT22;6022;48.768;18.608;2023-06-22T09:53:15;36.90;83.10
11925;DHT22;6022;48.768;18.608;2023-06-22T09:55:43;37.00;82.00
11925;DHT22;6022;48.768;18.608;2023-06-22T09:58:11;36.90;80.90
11925;DHT22;6022;48.768;18.608;2023-06-22T10:00:50;36.80;81.10
11925;DHT22;6022;48.768;18.608;2023-06-22T10:03:20;36.90;83.10
11925;DHT22;6022;48.768;18.608;2023-06-22T10:05:51;37.00;86.60
11925;DHT22;6022;48.768;18.608;2023-06-22T10:08:32;37.20;85.60
11925;DHT22;6022;48.768;18.608;2023-06-22T10:11:06;37.00;85.80
11925;DHT22;6022;48.768;18.608;2023-06-22T10:13:35;37.20;86.80
11925;DHT22;6022;48.768;18.608;2023-06-22T10:16:02;37.20;84.00
11925;DHT22;6022;48.768;18.608;2023-06-22T10:18:32;37.10;85.00
11925;DHT22;6022;48.768;18.608;2023-06-22T10:21:00;37.00;86.30
11925;DHT22;6022;48.768;18.608;2023-06-22T10:23:27;37.00;85.60
11925;DHT22;6022;48.768;18.608;2023-06-22T10:25:58;37.10;84.30
11925;DHT22;6022;48.768;18.608;2023-06-22T10:28:26;37.20;79.90
11925;DHT22;6022;48.768;18.608;2023-06-22T10:30:54;36.80;83.80
11925;DHT22;6022;48.768;18.608;2023-06-22T10:33:26;36.80;85.10
11925;DHT22;6022;48.768;18.608;2023-06-22T10:35:58;36.80;83.00
11925;DHT22;6022;48.768;18.608;2023-06-22T10:38:28;36.70;85.30
11925;DHT22;6022;48.768;18.608;2023-06-22T10:40:56;36.90;87.50
11925;DHT22;6022;48.768;18.608;2023-06-22T10:43:25;36.50;84.10
11925;DHT22;6022;48.768;18.608;2023-06-22T10:45:52;36.70;85.30
11925;DHT22;6022;48.768;18.608;2023-06-22T10:48:19;36.70;87.40
11925;DHT22;6022;48.768;18.608;2023-06-22T10:50:47;36.50;87.90
11925;DHT22;6022;48.768;18.608;2023-06-22T10:53:14;36.30;83.20
11925;DHT22;6022;48.768;18.608;2023-06-22T10:55:45;36.00;82.80
11925;DHT22;6022;48.768;18.608;2023-06-22T10:58:23;36.00;89.40
11925;DHT22;6022;48.768;18.608;2023-06-22T11:00:53;36.30;89.70
11925;DHT22;6022;48.768;18.608;2023-06-22T11:03:23;36.00;88.00
11925;DHT22;6022;48.768;18.608;2023-06-22T11:05:51;36.00;87.10
11925;DHT22;6022;48.768;18.608;2023-06-22T11:08:18;36.10;89.10
11925;DHT22;6022;48.768;18.608;2023-06-22T11:10:46;36.50;87.40
11925;DHT22;6022;48.768;18.608;2023-06-22T11:13:16;36.20;86.40
11925;DHT22;6022;48.768;18.608;2023-06-22T11:15:43;36.40;91.30
11925;DHT22;6022;48.768;18.608;2023-06-22T11:18:11;36.60;90.90
11925;DHT22;6022;48.768;18.608;2023-06-22T11:20:38;36.50;88.10
11925;DHT22;6022;48.768;18.608;2023-06-22T11:23:06;36.50;86.40
11925;DHT22;6022;48.768;18.608;2023-06-22T11:25:33;36.40;85.90
11925;DHT22;6022;48.768;18.608;2023-06-22T11:28:05;36.30;90.20
11925;DHT22;6022;48.768;18.608;2023-06-22T11:30:32;36.40;86.10
11925;DHT22;6022;48.768;18.608;2023-06-22T11:33:00;36.20;86.60
11925;DHT22;6022;48.768;18.608;2023-06-22T11:35:28;36.30;88.10
11925;DHT22;6022;48.768;18.608;2023-06-22T11:37:55;36.20;89.50
11925;DHT22;6022;48.768;18.608;2023-06-22T11:40:23;36.00;87.70
11925;DHT22;6022;48.768;18.608;2023-06-22T11:42:50;36.10;91.00
11925;DHT22;6022;48.768;18.608;2023-06-22T11:45:17;36.20;91.90
11925;DHT22;6022;48.768;18.608;2023-06-22T11:47:47;36.30;89.00
11925;DHT22;6022;48.768;18.608;2023-06-22T11:50:14;36.00;89.90
11925;DHT22;6022;48.768;18.608;2023-06-22T11:52:42;36.20;91.00
11925;DHT22;6022;48.768;18.608;2023-06-22T11:55:09;36.20;91.10
11925;DHT22;6022;48.768;18.608;2023-06-22T11:57:37;36.30;91.40
11925;DHT22;6022;48.768;18.608;2023-06-22T12:00:06;36.30;90.30
11925;DHT22;6022;48.768;18.608;2023-06-22T12:02:45;36.00;85.60
11925;DHT22;6022;48.768;18.608;2023-06-22T12:05:12;36.10;88.90
11925;DHT22;6022;48.768;18.608;2023-06-22T12:07:39;35.90;85.40
11925;DHT22;6022;48.768;18.608;2023-06-22T12:10:07;35.90;88.00
11925;DHT22;6022;48.768;18.608;2023-06-22T12:12:34;36.00;89.80
11925;DHT22;6022;48.768;18.608;2023-06-22T12:15:02;35.70;83.50
11925;DHT22;6022;48.768;18.608;2023-06-22T12:17:30;35.50;84.70
11925;DHT22;6022;48.768;18.608;2023-06-22T12:19:58;35.50;86.50
11925;DHT22;6022;48.768;18.608;2023-06-22T12:22:26;35.70;90.40
11925;DHT22;6022;48.768;18.608;2023-06-22T12:24:53;35.70;89.00
11925;DHT22;6022;48.768;18.608;2023-06-22T12:27:20;35.80;90.00
11925;DHT22;6022;48.768;18.608;2023-06-22T12:29:48;36.00;90.40
11925;DHT22;6022;48.768;18.608;2023-06-22T12:32:15;35.90;84.40
11925;DHT22;6022;48.768;18.608;2023-06-22T12:34:43;35.40;82.20
11925;DHT22;6022;48.768;18.608;2023-06-22T12:37:11;35.40;86.60
11925;DHT22;6022;48.768;18.608;2023-06-22T12:39:41;35.20;91.60
11925;DHT22;6022;48.768;18.608;2023-06-22T12:42:09;35.20;91.30
11925;DHT22;6022;48.768;18.608;2023-06-22T12:44:38;34.90;91.50
11925;DHT22;6022;48.768;18.608;2023-06-22T12:47:08;34.90;91.40
11925;DHT22;6022;48.768;18.608;2023-06-22T12:49:36;34.70;91.80
11925;DHT22;6022;48.768;18.608;2023-06-22T12:52:09;34.50;91.00
11925;DHT22;6022;48.768;18.608;2023-06-22T12:54:37;34.30;90.80
11925;DHT22;6022;48.768;18.608;2023-06-22T12:57:20;34.10;93.80
11925;DHT22;6022;48.768;18.608;2023-06-22T12:59:47;34.60;93.80
11925;DHT22;6022;48.768;18.608;2023-06-22T13:02:15;34.10;92.40
11925;DHT22;6022;48.768;18.608;2023-06-22T13:04:42;34.40;91.90
11925;DHT22;6022;48.768;18.608;2023-06-22T13:07:10;34.30;94.40
11925;DHT22;6022;48.768;18.608;2023-06-22T13:09:40;34.20;90.90
11925;DHT22;6022;48.768;18.608;2023-06-22T13:12:08;34.10;91.20
11925;DHT22;6022;48.768;18.608;2023-06-22T13:14:35;34.30;95.10
11925;DHT22;6022;48.768;18.608;2023-06-22T13:17:03;34.00;92.90
11925;DHT22;6022;48.768;18.608;2023-06-22T13:19:32;34.10;95.10
11925;DHT22;6022;48.768;18.608;2023-06-22T13:22:00;33.50;94.00
11925;DHT22;6022;48.768;18.608;2023-06-22T13:24:27;33.70;96.70
11925;DHT22;6022;48.768;18.608;2023-06-22T13:26:54;33.80;93.50
11925;DHT22;6022;48.768;18.608;2023-06-22T13:29:22;33.70;97.00
11925;DHT22;6022;48.768;18.608;2023-06-22T13:31:49;34.00;93.90
11925;DHT22;6022;48.768;18.608;2023-06-22T13:34:16;33.80;94.90
11925;DHT22;6022;48.768;18.608;2023-06-22T13:36:47;33.70;96.50
11925;DHT22;6022;48.768;18.608;2023-06-22T13:39:14;33.70;96.30
11925;DHT22;6022;48.768;18.608;2023-06-22T13:41:41;33.50;95.30
11925;DHT22;6022;48.768;18.608;2023-06-22T13:44:10;33.60;95.60
11925;DHT22;6022;48.768;18.608;2023-06-22T13:46:37;33.70;95.40
11925;DHT22;6022;48.768;18.608;2023-06-22T13:49:05;33.60;97.80
11925;DHT22;6022;48.768;18.608;2023-06-22T13:51:32;33.90;98.40
11925;DHT22;6022;48.768;18.608;2023-06-22T13:53:59;33.80;97.90
11925;DHT22;6022;48.768;18.608;2023-06-22T13:56:30;33.60;97.60
11925;DHT22;6022;48.768;18.608;2023-06-22T13:58:57;33.20;96.80
11925;DHT22;6022;48.768;18.608;2023-06-22T14:01:24;33.40;98.60
11925;DHT22;6022;48.768;18.608;2023-06-22T14:03:52;33.40;99.00
11925;DHT22;6022;48.768;18.608;2023-06-22T14:06:19;33.40;98.00
11925;DHT22;6022;48.768;18.608;2023-06-22T14:08:49;33.20;99.80
11925;DHT22;6022;48.768;18.608;2023-06-22T14:11:17;33.30;98.20
11925;DHT22;6022;48.768;18.608;2023-06-22T14:13:45;33.30;99.40
11925;DHT22;6022;48.768;18.608;2023-06-22T14:16:12;33.30;99.90
11925;DHT22;6022;48.768;18.608;2023-06-22T14:18:39;33.10;98.80
11925;DHT22;6022;48.768;18.608;2023-06-22T14:21:07;33.10;98.90
11925;DHT22;6022;48.768;18.608;2023-06-22T14:23:35;33.00;99.70
11925;DHT22;6022;48.768;18.608;2023-06-22T14:26:03;33.10;99.90
11925;DHT22;6022;48.768;18.608;2023-06-22T14:28:30;33.00;99.30
11925;DHT22;6022;48.768;18.608;2023-06-22T14:30:58;32.90;99.90
11925;DHT22;6022;48.768;18.608;2023-06-22T14:33:35;33.10;99.90
11925;DHT22;6022;48.768;18.608;2023-06-22T14:36:08;33.10;99.90
11925;DHT22;6022;48.768;18.608;2023-06-22T14:38:45;32.70;99.90
11925;DHT22;6022;48.768;18.608;2023-06-22T14:41:23;32.60;99.90
11925;DHT22;6022;48.768;18.608;2023-06-22T14:43:53;32.60;99.90
11925;DHT22;6022;48.768;18.608;2023-06-22T14:46:29;32.70;99.90
11925;DHT22;6022;48.768;18.608;2023-06-22T14:49:08;32.60;99.90
11925;DHT22;6022;48.768;18.608;2023-06-22T14:51:40;32.70;99.90
11925;DHT22;6022;48.768;18.608;2023-06-22T14:54:24;32.60;99.90
11925;DHT22;6022;48.768;18.608;2023-06-22T14:57:40;32.60;99.90
11925;DHT22;6022;48.768;18.608;2023-06-22T15:00:13;32.40;99.90
11925;DHT22;6022;48.768;18.608;2023-06-22T15:02:51;32.50;99.90
11925;DHT22;6022;48.768;18.608;2023-06-22T15:05:48;32.50;99.90
11925;DHT22;6022;48.768;18.608;2023-06-22T15:08:46;32.40;99.90
11925;DHT22;6022;48.768;18.608;2023-06-22T15:11:14;32.40;99.90
11925;DHT22;6022;48.768;18.608;2023-06-22T15:14:16;32.30;99.90
11925;DHT22;6022;48.768;18.608;2023-06-22T15:17:09;32.10;99.90
11925;DHT22;6022;48.768;18.608;2023-06-22T15:19:45;32.20;99.90
11925;DHT22;6022;48.768;18.608;2023-06-22T15:22:17;32.10;99.90
11925;DHT22;6022;48.768;18.608;2023-06-22T15:24:55;32.10;99.90
11925;DHT22;6022;48.768;18.608;2023-06-22T15:27:28;32.10;99.90
11925;DHT22;6022;48.768;18.608;2023-06-22T15:29:58;32.00;99.90
11925;DHT22;6022;48.768;18.608;2023-06-22T15:32:31;31.90;99.90
11925;DHT22;6022;48.768;18.608;2023-06-22T15:34:58;31.90;99.90
11925;DHT22;6022;48.768;18.608;2023-06-22T15:37:26;32.10;99.90
11925;DHT22;6022;48.768;18.608;2023-06-22T15:40:35;32.00;99.90
11925;DHT22;6022;48.768;18.608;2023-06-22T15:45:49;31.70;99.90
11925;DHT22;6022;48.768;18.608;2023-06-22T15:48:17;31.80;99.90
11925;DHT22;6022;48.768;18.608;2023-06-22T15:53:34;31.30;99.90
11925;DHT22;6022;48.768;18.608;2023-06-22T15:56:05;31.60;99.90
11925;DHT22;6022;48.768;18.608;2023-06-22T15:58:36;31.80;99.90
11925;DHT22;6022;48.768;18.608;2023-06-22T16:01:11;31.60;99.90
11925;DHT22;6022;48.768;18.608;2023-06-22T16:03:49;31.50;99.90
11925;DHT22;6022;48.768;18.608;2023-06-22T16:06:22;33.80;99.90
11925;DHT22;6022;48.768;18.608;2023-06-22T16:08:50;31.40;99.90
11925;DHT22;6022;48.768;18.608;2023-06-22T16:11:20;31.50;99.90
11925;DHT22;6022;48.768;18.608;2023-06-22T16:13:50;31.50;99.90
11925;DHT22;6022;48.768;18.608;2023-06-22T16:16:18;31.50;99.90
11925;DHT22;6022;48.768;18.608;2023-06-22T16:18:48;31.40;99.90
11925;DHT22;6022;48.768;18.608;2023-06-22T16:21:26;31.40;99.90
11925;DHT22;6022;48.768;18.608;2023-06-22T16:23:56;31.10;99.90
11925;DHT22;6022;48.768;18.608;2023-06-22T16:26:23;31.30;99.90
11925;DHT22;6022;48.768;18.608;2023-06-22T16:28:52;31.20;99.90
11925;DHT22;6022;48.768;18.608;2023-06-22T16:31:19;31.10;99.90
11925;DHT22;6022;48.768;18.608;2023-06-22T16:33:47;31.00;99.90
11925;DHT22;6022;48.768;18.608;2023-06-22T16:36:16;31.00;99.90
11925;DHT22;6022;48.768;18.608;2023-06-22T16:38:44;30.70;99.90
11925;DHT22;6022;48.768;18.608;2023-06-22T16:41:11;30.50;99.90
11925;DHT22;6022;48.768;18.608;2023-06-22T16:43:40;30.60;99.90